createdAt,value
2018-07-12T03:01:28.571Z,15.97
2018-07-12T03:02:28.617Z,16.04
2018-07-12T03:03:33.185Z,15.98
2018-07-12T03:04:27.606Z,16.00
2018-07-12T03:38:35.416Z,16.00
2018-07-12T03:43:20.999Z,15.98
2018-07-12T03:44:12.428Z,16.12
2018-07-12T03:45:07.365Z,16.01
2018-07-12T03:46:09.521Z,16.04
2018-07-12T03:52:11.052Z,16.01
2018-07-12T03:53:10.458Z,16.10
2018-07-12T03:54:10.352Z,16.13
2018-07-12T03:55:10.146Z,16.15
2018-07-12T03:56:11.708Z,16.09
2018-07-12T03:57:10.648Z,16.09
2018-07-12T03:58:11.241Z,16.17
2018-07-12T03:59:11.068Z,16.13
2018-07-12T04:00:08.805Z,16.15
2018-07-12T04:01:09.830Z,16.15
2018-07-12T04:02:09.010Z,16.17
2018-07-12T04:03:09.267Z,16.13
2018-07-12T04:04:09.518Z,16.21
2018-07-12T04:06:58.132Z,16.13
2018-07-12T04:07:59.023Z,16.12
2018-07-12T04:08:58.802Z,16.15
2018-07-12T04:09:59.670Z,16.16
2018-07-12T04:10:59.161Z,15.98
2018-07-12T04:11:58.933Z,16.09
2018-07-12T04:12:57.322Z,16.00
2018-07-12T04:13:57.352Z,16.01
2018-07-12T04:14:57.479Z,16.01
2018-07-12T04:15:57.583Z,15.95
2018-07-12T04:16:57.833Z,15.90
2018-07-12T04:17:58.119Z,15.95
2018-07-12T04:19:00.351Z,15.92
2018-07-12T04:19:59.231Z,15.94
2018-07-12T04:21:23.703Z,15.90
2018-07-12T04:22:54.574Z,15.84
2018-07-12T04:23:01.297Z,15.79
2018-07-12T04:24:02.229Z,15.79
2018-07-12T04:25:02.978Z,15.77
2018-07-12T04:26:02.532Z,15.77
2018-07-12T04:27:02.204Z,15.68
2018-07-12T04:49:53.659Z,15.98
2018-07-12T04:52:20.205Z,16.04
2018-07-12T04:55:01.334Z,16.12
2018-07-12T04:56:02.152Z,16.09
2018-07-12T04:57:04.422Z,16.09
2018-07-12T04:58:03.013Z,16.16
2018-07-12T04:59:06.231Z,16.20
2018-07-12T05:36:23.649Z,16.96
2018-07-12T05:37:24.189Z,17.02
2018-07-12T05:38:23.661Z,16.94
2018-07-12T05:39:24.281Z,17.19
2018-07-12T05:53:53.235Z,17.97
2018-07-12T05:54:58.196Z,18.00
2018-07-12T05:55:56.075Z,17.90
2018-07-12T05:56:56.160Z,17.92
2018-07-12T05:57:57.312Z,17.95
2018-07-12T06:28:21.351Z,18.49
2018-07-12T06:29:09.850Z,18.38
2018-07-12T06:30:19.419Z,18.50
2018-07-12T06:31:10.101Z,18.60
2018-07-12T06:32:12.106Z,18.58
2018-07-12T06:35:24.727Z,18.70
2018-07-12T06:36:25.580Z,18.75
2018-07-12T06:37:35.348Z,18.86
2018-07-12T06:54:58.181Z,19.92
2018-07-12T06:59:13.550Z,20.43
2018-07-12T07:05:48.319Z,20.67
2018-07-12T07:09:05.843Z,21.03
2018-07-12T07:10:08.488Z,21.03
2018-07-12T07:11:43.824Z,21.11
2018-07-12T07:26:35.925Z,20.70
2018-07-12T07:27:37.878Z,20.62
2018-07-12T07:28:42.618Z,20.41
2018-07-12T07:33:12.254Z,20.44
2018-07-12T07:35:08.007Z,20.47
2018-07-12T07:36:11.094Z,20.43
2018-07-12T07:38:36.261Z,20.41
2018-07-12T07:43:24.498Z,20.72
2018-07-12T07:52:13.193Z,20.87
2018-07-12T07:53:58.559Z,20.90
2018-07-12T07:58:05.961Z,20.74
2018-07-12T08:12:07.566Z,21.14
2018-07-12T08:35:07.179Z,21.70
2018-07-12T08:37:07.127Z,21.82
2018-07-12T08:38:24.633Z,21.98
2018-07-12T08:41:06.770Z,21.82
2018-07-12T08:43:13.822Z,21.99
2018-07-12T08:44:10.884Z,21.93
2018-07-12T08:45:09.796Z,22.14
2018-07-12T08:46:07.595Z,22.11
2018-07-12T08:47:09.783Z,21.98
2018-07-12T08:59:21.118Z,23.02
2018-07-12T09:00:22.144Z,23.17
2018-07-12T09:01:20.611Z,23.36
2018-07-12T09:02:20.705Z,23.62
2018-07-12T09:03:22.968Z,23.62
2018-07-12T09:04:20.835Z,23.58
2018-07-12T09:06:18.339Z,23.73
2018-07-12T09:07:17.683Z,23.73
2018-07-12T09:08:17.776Z,23.61
2018-07-12T09:09:18.070Z,23.51
2018-07-12T09:10:18.128Z,23.23
2018-07-12T09:11:18.194Z,23.09
2018-07-12T09:12:18.439Z,22.88
2018-07-12T09:13:18.468Z,22.93
2018-07-12T09:14:18.831Z,23.10
2018-07-12T09:15:19.005Z,23.36
2018-07-12T09:16:19.440Z,23.69
2018-07-12T09:17:19.448Z,24.18
2018-07-12T09:18:20.479Z,24.55
2018-07-12T09:19:19.798Z,24.74
2018-07-12T09:20:20.114Z,24.92
2018-07-12T09:21:20.211Z,25.04
2018-07-12T09:22:20.304Z,25.06
2018-07-12T09:23:20.446Z,25.23
2018-07-12T09:24:20.612Z,24.92
2018-07-12T09:25:21.239Z,24.84
2018-07-12T09:26:21.817Z,24.77
2018-07-12T09:27:21.211Z,24.85
2018-07-12T09:28:21.315Z,24.88
2018-07-12T09:29:21.788Z,24.88
2018-07-12T09:30:22.033Z,24.73
2018-07-12T09:31:21.933Z,24.81
2018-07-12T09:32:22.546Z,24.81
2018-07-12T09:33:22.547Z,24.70
2018-07-12T09:34:22.456Z,24.57
2018-07-12T09:35:22.554Z,24.53
2018-07-12T09:36:23.594Z,24.40
2018-07-12T09:37:23.076Z,24.29
2018-07-12T09:38:23.365Z,24.14
2018-07-12T09:42:06.335Z,23.88
2018-07-12T09:42:51.932Z,24.06
2018-07-12T09:43:57.732Z,24.29
2018-07-12T09:44:55.608Z,24.36
2018-07-12T09:47:01.620Z,24.60
2018-07-12T09:48:02.595Z,24.66
2018-07-12T09:49:01.468Z,24.51
2018-07-12T09:50:00.590Z,24.51
2018-07-12T09:51:00.557Z,24.24
2018-07-12T09:52:00.534Z,23.91
2018-07-12T09:52:59.760Z,23.77
2018-07-12T09:53:58.764Z,23.74
2018-07-12T09:54:58.692Z,23.63
2018-07-12T09:55:59.041Z,23.63
2018-07-12T09:56:59.292Z,23.59
2018-07-12T09:57:59.400Z,23.59
2018-07-12T09:59:00.321Z,23.58
2018-07-12T09:59:59.901Z,23.55
2018-07-12T10:00:59.872Z,23.37
2018-07-12T10:02:00.360Z,23.39
2018-07-12T10:03:00.549Z,23.44
2018-07-12T10:04:00.652Z,23.58
2018-07-12T10:05:00.772Z,23.56
2018-07-12T10:06:01.452Z,23.59
2018-07-12T10:07:01.503Z,23.74
2018-07-12T10:08:01.369Z,23.77
2018-07-12T10:09:01.532Z,23.76
2018-07-12T10:10:01.751Z,23.76
2018-07-12T10:11:01.828Z,23.74
2018-07-12T10:12:02.662Z,23.77
2018-07-12T10:13:02.561Z,24.05
2018-07-12T10:14:02.633Z,24.11
2018-07-12T10:15:04.119Z,24.17
2018-07-12T10:16:02.869Z,24.33
2018-07-12T10:17:03.499Z,24.42
2018-07-12T10:18:03.416Z,24.26
2018-07-12T10:19:03.306Z,24.18
2018-07-12T10:21:05.707Z,25.08
2018-07-12T10:22:04.080Z,25.46
2018-07-12T10:38:28.196Z,26.38
2018-07-12T11:52:12.760Z,28.01
2018-07-12T12:07:06.452Z,28.86
2018-07-12T12:08:17.017Z,28.54
2018-07-12T12:11:40.983Z,27.75
2018-07-12T12:14:44.107Z,27.17
2018-07-12T12:15:36.435Z,26.93
2018-07-12T12:16:49.105Z,26.75
2018-07-12T12:17:48.818Z,27.35
2018-07-12T12:18:36.184Z,28.33
2018-07-12T12:20:38.937Z,30.10
2018-07-12T12:21:38.452Z,30.88
2018-07-12T12:22:41.456Z,31.15
2018-07-12T12:23:34.883Z,31.06
2018-07-12T12:24:34.938Z,30.99
2018-07-12T12:25:35.828Z,30.66
2018-07-12T12:26:34.880Z,30.23
2018-07-12T12:27:35.475Z,29.94
2018-07-12T12:28:35.362Z,29.60
2018-07-12T12:29:35.680Z,29.45
2018-07-12T12:30:35.700Z,29.19
2018-07-12T12:31:36.250Z,29.13
2018-07-12T12:32:36.364Z,29.49
2018-07-12T12:33:36.345Z,30.23
2018-07-12T12:34:36.446Z,31.03
2018-07-12T12:35:36.721Z,31.52
2018-07-12T12:36:37.617Z,32.16
2018-07-12T12:37:37.024Z,32.18
2018-07-12T12:38:37.273Z,32.19
2018-07-12T12:39:37.574Z,32.56
2018-07-12T12:40:37.439Z,31.69
2018-07-12T12:41:37.791Z,31.87
2018-07-12T12:42:39.647Z,32.21
2018-07-12T12:43:38.606Z,32.33
2018-07-12T12:44:39.222Z,32.60
2018-07-12T12:45:39.523Z,32.83
2018-07-12T12:46:42.268Z,32.71
2018-07-12T12:47:39.530Z,33.12
2018-07-12T12:48:39.009Z,33.31
2018-07-12T12:49:40.065Z,33.57
2018-07-12T12:50:40.432Z,33.22
2018-07-12T12:51:39.795Z,32.53
2018-07-12T12:52:39.825Z,32.30
2018-07-12T12:53:42.494Z,32.78
2018-07-12T12:54:40.278Z,33.08
2018-07-12T12:55:40.690Z,33.39
2018-07-12T12:56:40.878Z,33.89
2018-07-12T12:57:40.926Z,33.74
2018-07-12T12:58:41.676Z,34.17
2018-07-12T12:59:59.888Z,34.27
2018-07-12T13:01:44.354Z,34.10
2018-07-12T13:03:39.584Z,33.92
2018-07-12T13:03:46.744Z,33.37
2018-07-12T13:04:47.790Z,32.65
2018-07-12T13:06:46.990Z,31.44
2018-07-12T13:07:45.916Z,30.68
2018-07-12T13:08:49.944Z,30.13
2018-07-12T13:10:26.346Z,29.81
2018-07-12T13:12:06.193Z,30.30
2018-07-12T13:14:22.563Z,31.39
2018-07-12T13:16:49.213Z,33.49
2018-07-12T13:17:48.662Z,33.79
2018-07-12T13:18:46.811Z,34.30
2018-07-12T13:19:44.844Z,34.50
2018-07-12T13:20:45.182Z,34.55
2018-07-12T13:21:45.203Z,34.64
2018-07-12T13:22:45.800Z,34.89
2018-07-12T13:23:45.757Z,34.61
2018-07-12T13:24:45.701Z,34.43
2018-07-12T13:25:46.112Z,34.74
2018-07-12T13:26:46.135Z,34.85
2018-07-12T13:27:46.492Z,34.42
2018-07-12T13:28:46.536Z,34.75
2018-07-12T13:29:48.416Z,35.29
2018-07-12T13:30:46.864Z,35.46
2018-07-12T13:32:47.157Z,34.54
2018-07-12T13:33:47.397Z,33.46
2018-07-12T13:34:47.511Z,33.53
2018-07-12T13:35:47.930Z,33.52
2018-07-12T13:36:48.017Z,34.05
2018-07-12T13:37:48.104Z,34.45
2018-07-12T13:38:48.257Z,34.67
2018-07-12T13:39:48.390Z,34.75
2018-07-12T13:40:48.697Z,34.96
2018-07-12T13:41:48.959Z,34.74
2018-07-12T13:42:49.214Z,34.74
2018-07-12T13:43:49.141Z,34.71
2018-07-12T13:44:49.506Z,34.90
2018-07-12T13:45:49.491Z,35.24
2018-07-12T13:46:49.788Z,35.82
2018-07-12T13:47:49.872Z,35.68
2018-07-12T13:48:50.216Z,35.92
2018-07-12T13:49:50.480Z,35.63
2018-07-12T13:50:50.406Z,34.96
2018-07-12T13:51:50.902Z,35.12
2018-07-12T13:52:50.867Z,34.81
2018-07-12T13:53:51.102Z,33.79
2018-07-12T13:54:51.095Z,33.31
2018-07-12T13:55:51.242Z,33.46
2018-07-12T13:56:51.542Z,33.73
2018-07-12T13:57:51.576Z,34.16
2018-07-12T13:58:52.283Z,34.43
2018-07-12T13:59:52.155Z,34.66
2018-07-12T14:00:52.381Z,35.12
2018-07-12T14:01:52.607Z,35.26
2018-07-12T14:02:53.023Z,35.23
2018-07-12T14:03:53.229Z,35.26
2018-07-12T14:04:53.285Z,35.15
2018-07-12T14:05:53.462Z,34.95
2018-07-12T14:06:53.729Z,35.15
2018-07-12T14:07:53.849Z,35.19
2018-07-12T14:08:53.880Z,35.04
2018-07-12T14:09:54.356Z,33.76
2018-07-12T14:10:54.339Z,32.89
2018-07-12T14:11:54.553Z,32.43
2018-07-12T14:12:54.795Z,32.87
2018-07-12T14:13:54.809Z,33.27
2018-07-12T14:14:55.333Z,33.30
2018-07-12T14:15:55.027Z,33.74
2018-07-12T14:16:55.325Z,33.96
2018-07-12T14:17:55.654Z,34.17
2018-07-12T14:18:56.094Z,34.23
2018-07-12T14:19:56.081Z,34.18
2018-07-12T14:20:56.418Z,33.94
2018-07-12T14:21:56.483Z,33.27
2018-07-12T14:22:56.895Z,32.65
2018-07-12T14:23:56.870Z,31.96
2018-07-12T14:24:57.161Z,31.56
2018-07-12T14:25:57.302Z,31.02
2018-07-12T14:26:57.750Z,30.62
2018-07-12T14:27:57.954Z,30.18
2018-07-12T14:28:58.057Z,29.87
2018-07-12T14:29:58.317Z,29.53
2018-07-12T14:30:58.568Z,29.36
2018-07-12T14:31:58.620Z,29.26
2018-07-12T14:32:58.817Z,29.29
2018-07-12T14:33:59.027Z,29.20
2018-07-12T14:34:59.105Z,29.16
2018-07-12T14:35:59.251Z,28.96
2018-07-12T14:36:59.394Z,28.97
2018-07-12T14:37:59.891Z,28.82
2018-07-12T14:39:00.051Z,28.69
2018-07-12T14:40:00.302Z,28.59
2018-07-12T14:41:00.619Z,28.57
2018-07-12T14:42:00.547Z,28.52
2018-07-12T14:43:00.820Z,28.42
2018-07-12T14:44:01.081Z,28.44
2018-07-12T14:45:01.198Z,28.29
2018-07-12T14:46:01.477Z,28.30
2018-07-12T14:47:01.687Z,28.20
2018-07-12T14:48:01.926Z,28.22
2018-07-12T14:49:01.916Z,28.10
2018-07-12T14:50:02.212Z,28.05
2018-07-12T14:51:03.011Z,27.92
2018-07-12T14:52:02.587Z,27.77
2018-07-12T14:53:02.749Z,27.78
2018-07-12T14:54:02.874Z,27.68
2018-07-12T14:55:03.243Z,27.60
2018-07-12T14:56:03.366Z,27.54
2018-07-12T14:57:03.861Z,27.39
2018-07-12T14:58:03.830Z,27.44
2018-07-12T14:59:03.947Z,27.36
2018-07-12T15:00:04.187Z,27.20
2018-07-12T15:01:04.317Z,27.25
2018-07-12T15:02:04.598Z,27.00
2018-07-12T15:03:04.583Z,27.05
2018-07-12T15:04:05.088Z,26.77
2018-07-12T15:05:05.252Z,26.63
2018-07-12T15:06:05.579Z,26.51
2018-07-12T15:07:05.198Z,26.51
2018-07-12T15:08:05.432Z,26.36
2018-07-12T15:09:05.728Z,26.31
2018-07-12T15:10:06.112Z,26.25
2018-07-12T15:11:06.423Z,26.29
2018-07-12T15:12:06.341Z,26.21
2018-07-12T15:13:06.416Z,26.23
2018-07-12T15:14:06.580Z,26.05
2018-07-12T15:15:06.635Z,25.87
2018-07-12T15:16:07.038Z,26.02
2018-07-12T15:17:07.435Z,25.98
2018-07-12T15:18:07.152Z,25.96
2018-07-12T15:19:07.861Z,25.99
2018-07-12T15:20:07.759Z,25.96
2018-07-12T15:21:07.925Z,26.00
2018-07-12T15:22:08.061Z,26.05
2018-07-12T15:23:08.195Z,26.43
2018-07-12T15:24:08.483Z,27.37
2018-07-12T15:25:09.122Z,28.10
2018-07-12T15:26:08.899Z,28.62
2018-07-12T15:27:09.042Z,29.26
2018-07-12T15:28:09.519Z,29.78
2018-07-12T15:29:09.131Z,29.53
2018-07-12T15:30:09.648Z,29.12
2018-07-12T21:36:41.098Z,19.14
2018-07-12T21:39:11.431Z,19.15
